Startpagina
METAR-TAF:

METAR-TAF

Vliegvelden :

Luxeuil-les-Bains, Frankrijk

breedte: 47-47N, lengte: 006-21E, hoogte: 278 m

Actueel weer

Dit bericht is 41 minuten geleden gemaakt, om 03:00 UTC
Wind 2 kt uit het oostnoordoosten
Temperatuur 13°C
Vochtigheid 100%
Druk 1019 hPa
Zicht 10 km of meer
geen wolken onder 1500 m en geen cumulonimbus

METAR: LFSX 260300Z AUTO 07002KT CAVOK 13/13 Q1019

Tijdstip: 05:41 (03:41 UTC)


TAF: ontbreekt

Waarnemingen en weersverwachtingen van meer dan 4000 vliegvelden (METAR en TAF).

De beschikbare stations zijn de gele en rode punten op de kaart.

Ga met uw muis naar het station om de naam te zien.

Klik dan om waarnemingen en weersverwachtingen te zien.

kaart wijzigen: klik op de groene knoppen met een zwart kruis om in te zoomen, op de groene knop met een streepje om uit te zoomen of op de groene pijlen voor aangrenzende kaarten.


METAR-TAF: